sensor_id;sensor_type;location;lat;lon;timestamp;pressure;altitude;pressure_sealevel;temperature;humidity
12951;BME280;6540;50.858;7.232;2023-08-06T00:02:00;51568.09;;;-142.34;27.61
12951;BME280;6540;50.858;7.232;2023-08-06T00:04:26;51588.28;;;-142.34;27.46
12951;BME280;6540;50.858;7.232;2023-08-06T00:06:51;51547.94;;;-142.34;27.51
12951;BME280;6540;50.858;7.232;2023-08-06T00:09:16;51539.84;;;-142.34;27.27
12951;BME280;6540;50.858;7.232;2023-08-06T00:11:42;51539.84;;;-142.34;27.13
12951;BME280;6540;50.858;7.232;2023-08-06T00:14:09;51539.84;;;-142.34;27.12
12951;BME280;6540;50.858;7.232;2023-08-06T00:16:34;51531.78;;;-142.34;27.20
12951;BME280;6540;50.858;7.232;2023-08-06T00:19:00;51568.09;;;-142.34;27.83
12951;BME280;6540;50.858;7.232;2023-08-06T00:21:25;51592.31;;;-142.34;27.78
12951;BME280;6540;50.858;7.232;2023-08-06T00:23:50;51560.03;;;-142.34;27.81
12951;BME280;6540;50.858;7.232;2023-08-06T00:26:17;51551.97;;;-142.34;27.25
12951;BME280;6540;50.858;7.232;2023-08-06T00:28:42;51515.66;;;-142.34;26.93
12951;BME280;6540;50.858;7.232;2023-08-06T00:31:08;51551.97;;;-142.34;27.07
12951;BME280;6540;50.858;7.232;2023-08-06T00:33:33;51535.81;;;-142.34;27.02
12951;BME280;6540;50.858;7.232;2023-08-06T00:35:58;51511.63;;;-142.34;27.24
12951;BME280;6540;50.858;7.232;2023-08-06T00:38:24;51572.13;;;-142.34;27.00
12951;BME280;6540;50.858;7.232;2023-08-06T00:40:49;51560.03;;;-142.34;27.69
12951;BME280;6540;50.858;7.232;2023-08-06T00:43:14;51511.63;;;-142.34;26.88
12951;BME280;6540;50.858;7.232;2023-08-06T00:45:40;51564.06;;;-142.34;27.34
12951;BME280;6540;50.858;7.232;2023-08-06T00:48:05;51537.84;;;-142.34;27.64
12951;BME280;6540;50.858;7.232;2023-08-06T00:50:31;51566.09;;;-142.34;27.59
12951;BME280;6540;50.858;7.232;2023-08-06T00:52:57;51556.00;;;-142.34;27.14
12951;BME280;6540;50.858;7.232;2023-08-06T00:55:23;51543.88;;;-142.34;27.49
12951;BME280;6540;50.858;7.232;2023-08-06T00:57:48;51560.03;;;-142.34;27.46
12951;BME280;6540;50.858;7.232;2023-08-06T01:00:15;51533.81;;;-142.34;27.08
12951;BME280;6540;50.858;7.232;2023-08-06T01:02:40;51547.94;;;-142.34;27.56
12951;BME280;6540;50.858;7.232;2023-08-06T01:05:06;51543.88;;;-142.34;27.14
12951;BME280;6540;50.858;7.232;2023-08-06T01:08:23;51495.47;;;-142.34;27.05
12951;BME280;6540;50.858;7.232;2023-08-06T01:11:59;51539.84;;;-142.34;27.80
12951;BME280;6540;50.858;7.232;2023-08-06T01:13:57;51531.78;;;-142.34;27.51
12951;BME280;6540;50.858;7.232;2023-08-06T01:16:24;51543.88;;;-142.34;27.64
12951;BME280;6540;50.858;7.232;2023-08-06T01:18:49;51513.63;;;-142.34;27.17
12951;BME280;6540;50.858;7.232;2023-08-06T01:21:18;51523.72;;;-142.34;27.37
12951;BME280;6540;50.858;7.232;2023-08-06T01:23:45;51568.09;;;-142.34;27.91
12951;BME280;6540;50.858;7.232;2023-08-06T01:29:15;51529.78;;;-142.34;26.77
12951;BME280;6540;50.858;7.232;2023-08-06T01:31:43;51547.94;;;-142.34;27.49
12951;BME280;6540;50.858;7.232;2023-08-06T01:34:13;51521.69;;;-142.34;26.90
12951;BME280;6540;50.858;7.232;2023-08-06T01:36:42;51547.94;;;-142.34;27.26
12951;BME280;6540;50.858;7.232;2023-08-06T01:39:08;51553.97;;;-142.34;27.46
12951;BME280;6540;50.858;7.232;2023-08-06T01:41:33;51541.88;;;-142.34;27.51
12951;BME280;6540;50.858;7.232;2023-08-06T01:43:58;51560.03;;;-142.34;28.07
12951;BME280;6540;50.858;7.232;2023-08-06T01:46:24;51564.06;;;-142.34;27.57
12951;BME280;6540;50.858;7.232;2023-08-06T01:48:49;51562.03;;;-142.34;27.65
12951;BME280;6540;50.858;7.232;2023-08-06T01:51:14;51560.03;;;-142.34;27.37
12951;BME280;6540;50.858;7.232;2023-08-06T01:53:40;51543.88;;;-142.34;27.59
12951;BME280;6540;50.858;7.232;2023-08-06T01:56:05;51543.88;;;-142.34;27.21
12951;BME280;6540;50.858;7.232;2023-08-06T01:58:30;51549.94;;;-142.34;27.28
12951;BME280;6540;50.858;7.232;2023-08-06T02:00:56;51556.00;;;-142.34;27.39
12951;BME280;6540;50.858;7.232;2023-08-06T02:03:21;51535.81;;;-142.34;27.19
12951;BME280;6540;50.858;7.232;2023-08-06T02:05:46;51564.06;;;-142.34;27.75
12951;BME280;6540;50.858;7.232;2023-08-06T02:08:12;51588.28;;;-142.34;27.68
12951;BME280;6540;50.858;7.232;2023-08-06T02:10:37;51541.88;;;-142.34;27.42
12951;BME280;6540;50.858;7.232;2023-08-06T02:13:02;51590.28;;;-142.34;28.07
12951;BME280;6540;50.858;7.232;2023-08-06T02:15:28;51596.34;;;-142.34;28.11
12951;BME280;6540;50.858;7.232;2023-08-06T02:17:53;51604.41;;;-142.34;27.94
12951;BME280;6540;50.858;7.232;2023-08-06T02:20:18;51582.22;;;-142.34;27.95
12951;BME280;6540;50.858;7.232;2023-08-06T02:22:44;51553.97;;;-142.34;27.45
12951;BME280;6540;50.858;7.232;2023-08-06T02:25:09;51572.13;;;-142.34;27.80
12951;BME280;6540;50.858;7.232;2023-08-06T02:27:34;51602.38;;;-142.34;27.85
12951;BME280;6540;50.858;7.232;2023-08-06T02:30:00;51584.22;;;-142.34;28.05
12951;BME280;6540;50.858;7.232;2023-08-06T02:32:25;51588.28;;;-142.34;27.77
12951;BME280;6540;50.858;7.232;2023-08-06T02:34:50;51568.09;;;-142.34;28.00
12951;BME280;6540;50.858;7.232;2023-08-06T02:37:16;51624.56;;;-142.34;28.03
12951;BME280;6540;50.858;7.232;2023-08-06T02:39:41;51616.50;;;-142.34;28.12
12951;BME280;6540;50.858;7.232;2023-08-06T02:42:07;51632.66;;;-142.34;28.64
12951;BME280;6540;50.858;7.232;2023-08-06T02:44:33;51596.34;;;-142.34;28.38
12951;BME280;6540;50.858;7.232;2023-08-06T02:46:59;51636.69;;;-142.34;29.21
12951;BME280;6540;50.858;7.232;2023-08-06T02:49:24;51648.78;;;-142.34;29.02
12951;BME280;6540;50.858;7.232;2023-08-06T02:51:49;51660.88;;;-142.34;30.16
12951;BME280;6540;50.858;7.232;2023-08-06T02:54:15;51604.41;;;-142.34;28.68
12951;BME280;6540;50.858;7.232;2023-08-06T02:56:43;51592.31;;;-142.34;27.46
12951;BME280;6540;50.858;7.232;2023-08-06T02:59:10;51545.91;;;-142.34;26.87
12951;BME280;6540;50.858;7.232;2023-08-06T03:01:35;51556.00;;;-142.34;27.27
12951;BME280;6540;50.858;7.232;2023-08-06T03:04:01;51564.06;;;-142.34;27.18
12951;BME280;6540;50.858;7.232;2023-08-06T03:06:26;51558.00;;;-142.34;27.06
12951;BME280;6540;50.858;7.232;2023-08-06T03:08:52;51606.44;;;-142.34;28.34
12951;BME280;6540;50.858;7.232;2023-08-06T03:11:17;51606.44;;;-142.34;28.38
12951;BME280;6540;50.858;7.232;2023-08-06T03:13:42;51612.47;;;-142.34;28.20
12951;BME280;6540;50.858;7.232;2023-08-06T03:16:08;51600.38;;;-142.34;28.28
12951;BME280;6540;50.858;7.232;2023-08-06T03:18:33;51628.63;;;-142.34;27.87
12951;BME280;6540;50.858;7.232;2023-08-06T03:20:58;51600.38;;;-142.34;29.05
12951;BME280;6540;50.858;7.232;2023-08-06T03:23:24;51562.03;;;-142.34;27.30
12951;BME280;6540;50.858;7.232;2023-08-06T03:25:49;51598.34;;;-142.34;27.54
12951;BME280;6540;50.858;7.232;2023-08-06T03:28:14;51545.91;;;-142.34;27.43
12951;BME280;6540;50.858;7.232;2023-08-06T03:30:40;51537.84;;;-142.34;27.00
12951;BME280;6540;50.858;7.232;2023-08-06T03:33:05;51547.94;;;-142.34;27.65
12951;BME280;6540;50.858;7.232;2023-08-06T03:35:30;51572.13;;;-142.34;27.95
12951;BME280;6540;50.858;7.232;2023-08-06T03:37:56;51553.97;;;-142.34;27.68
12951;BME280;6540;50.858;7.232;2023-08-06T03:40:21;51564.06;;;-142.34;27.99
12951;BME280;6540;50.858;7.232;2023-08-06T03:42:46;51632.66;;;-142.34;28.97
12951;BME280;6540;50.858;7.232;2023-08-06T03:45:12;51626.59;;;-142.34;28.80
12951;BME280;6540;50.858;7.232;2023-08-06T03:47:37;51620.53;;;-142.34;28.48
12951;BME280;6540;50.858;7.232;2023-08-06T03:50:03;51572.13;;;-142.34;27.83
12951;BME280;6540;50.858;7.232;2023-08-06T03:52:28;51584.22;;;-142.34;27.78
12951;BME280;6540;50.858;7.232;2023-08-06T03:54:53;51586.25;;;-142.34;28.36
12951;BME280;6540;50.858;7.232;2023-08-06T03:57:19;51626.59;;;-142.34;27.92
12951;BME280;6540;50.858;7.232;2023-08-06T03:59:44;51578.19;;;-142.34;27.41
12951;BME280;6540;50.858;7.232;2023-08-06T04:02:09;51547.94;;;-142.34;27.12
12951;BME280;6540;50.858;7.232;2023-08-06T04:04:35;51560.03;;;-142.34;27.83
12951;BME280;6540;50.858;7.232;2023-08-06T04:07:00;51628.63;;;-142.34;28.62
12951;BME280;6540;50.858;7.232;2023-08-06T04:09:28;51564.06;;;-142.34;28.14
12951;BME280;6540;50.858;7.232;2023-08-06T04:11:53;51535.81;;;-142.34;27.30
12951;BME280;6540;50.858;7.232;2023-08-06T04:14:19;51574.16;;;-142.34;27.36
12951;BME280;6540;50.858;7.232;2023-08-06T04:16:44;51588.28;;;-142.34;27.83
12951;BME280;6540;50.858;7.232;2023-08-06T04:19:10;51660.88;;;-142.34;30.07
12951;BME280;6540;50.858;7.232;2023-08-06T04:21:35;51630.63;;;-142.34;28.82
12951;BME280;6540;50.858;7.232;2023-08-06T04:24:00;51622.56;;;-142.34;29.26
12951;BME280;6540;50.858;7.232;2023-08-06T04:26:26;51632.66;;;-142.34;29.26
12951;BME280;6540;50.858;7.232;2023-08-06T04:28:51;51606.44;;;-142.34;28.12
12951;BME280;6540;50.858;7.232;2023-08-06T04:31:16;51624.56;;;-142.34;28.33
12951;BME280;6540;50.858;7.232;2023-08-06T04:33:42;51604.41;;;-142.34;27.85
12951;BME280;6540;50.858;7.232;2023-08-06T04:36:08;51630.63;;;-142.34;30.05
12951;BME280;6540;50.858;7.232;2023-08-06T04:38:33;51612.47;;;-142.34;28.02
12951;BME280;6540;50.858;7.232;2023-08-06T04:40:58;51636.69;;;-142.34;28.13
12951;BME280;6540;50.858;7.232;2023-08-06T04:43:24;51594.31;;;-142.34;28.14
12951;BME280;6540;50.858;7.232;2023-08-06T04:45:50;51608.44;;;-142.34;28.59
12951;BME280;6540;50.858;7.232;2023-08-06T04:48:16;51604.41;;;-142.34;28.54
12951;BME280;6540;50.858;7.232;2023-08-06T04:50:49;51592.31;;;-142.34;28.37
12951;BME280;6540;50.858;7.232;2023-08-06T04:53:14;51622.56;;;-142.34;30.09
12951;BME280;6540;50.858;7.232;2023-08-06T04:55:40;51632.66;;;-142.34;28.87
12951;BME280;6540;50.858;7.232;2023-08-06T04:58:06;51564.06;;;-142.34;27.67
12951;BME280;6540;50.858;7.232;2023-08-06T05:00:32;51527.75;;;-142.34;27.46
12951;BME280;6540;50.858;7.232;2023-08-06T05:02:59;51556.00;;;-142.34;27.49
12951;BME280;6540;50.858;7.232;2023-08-06T05:05:24;51533.81;;;-142.34;27.43
12951;BME280;6540;50.858;7.232;2023-08-06T05:07:50;51515.66;;;-142.34;27.32
12951;BME280;6540;50.858;7.232;2023-08-06T05:10:16;51570.13;;;-142.34;28.49
12951;BME280;6540;50.858;7.232;2023-08-06T05:12:41;51578.19;;;-142.34;27.97
12951;BME280;6540;50.858;7.232;2023-08-06T05:15:07;51566.09;;;-142.34;27.59
12951;BME280;6540;50.858;7.232;2023-08-06T05:17:32;51588.28;;;-142.34;27.97
12951;BME280;6540;50.858;7.232;2023-08-06T05:19:59;51560.03;;;-142.34;28.05
12951;BME280;6540;50.858;7.232;2023-08-06T05:22:24;51545.91;;;-142.34;27.85
12951;BME280;6540;50.858;7.232;2023-08-06T05:24:50;51608.44;;;-142.34;29.09
12951;BME280;6540;50.858;7.232;2023-08-06T05:27:15;51620.53;;;-142.34;27.78
12951;BME280;6540;50.858;7.232;2023-08-06T05:29:41;51564.06;;;-142.34;27.73
12951;BME280;6540;50.858;7.232;2023-08-06T05:32:06;51568.09;;;-142.34;27.31
12951;BME280;6540;50.858;7.232;2023-08-06T05:34:32;51539.84;;;-142.34;26.74
12951;BME280;6540;50.858;7.232;2023-08-06T05:36:57;51515.66;;;-142.34;27.15
12951;BME280;6540;50.858;7.232;2023-08-06T05:39:22;51560.03;;;-142.34;27.65
12951;BME280;6540;50.858;7.232;2023-08-06T05:41:48;51580.19;;;-142.34;28.23
12951;BME280;6540;50.858;7.232;2023-08-06T05:44:13;51551.97;;;-142.34;27.77
12951;BME280;6540;50.858;7.232;2023-08-06T05:46:38;51570.13;;;-142.34;27.73
12951;BME280;6540;50.858;7.232;2023-08-06T05:49:04;51551.97;;;-142.34;27.39
12951;BME280;6540;50.858;7.232;2023-08-06T05:51:30;51531.78;;;-142.34;27.34
12951;BME280;6540;50.858;7.232;2023-08-06T05:53:55;51527.75;;;-142.34;27.32
12951;BME280;6540;50.858;7.232;2023-08-06T05:56:21;51515.66;;;-142.34;27.58
12951;BME280;6540;50.858;7.232;2023-08-06T05:58:46;51632.66;;;-142.34;29.51
12951;BME280;6540;50.858;7.232;2023-08-06T06:01:12;51588.28;;;-142.34;27.84
12951;BME280;6540;50.858;7.232;2023-08-06T06:03:38;51582.22;;;-142.34;28.60
12951;BME280;6540;50.858;7.232;2023-08-06T06:06:03;51535.81;;;-142.34;27.77
12951;BME280;6540;50.858;7.232;2023-08-06T06:08:28;51549.94;;;-142.34;27.86
12951;BME280;6540;50.858;7.232;2023-08-06T06:10:54;51547.94;;;-142.34;27.60
12951;BME280;6540;50.858;7.232;2023-08-06T06:13:22;51556.00;;;-142.34;27.45
12951;BME280;6540;50.858;7.232;2023-08-06T06:15:48;51562.03;;;-142.34;27.59
12951;BME280;6540;50.858;7.232;2023-08-06T06:18:13;51572.13;;;-142.34;27.65
12951;BME280;6540;50.858;7.232;2023-08-06T06:20:38;51551.97;;;-142.34;27.33
12951;BME280;6540;50.858;7.232;2023-08-06T06:23:04;51539.84;;;-142.34;27.61
12951;BME280;6540;50.858;7.232;2023-08-06T06:25:29;51495.47;;;-142.34;27.13
12951;BME280;6540;50.858;7.232;2023-08-06T06:27:54;51521.69;;;-142.34;27.41
12951;BME280;6540;50.858;7.232;2023-08-06T06:30:20;51539.84;;;-142.34;27.45
12951;BME280;6540;50.858;7.232;2023-08-06T06:32:45;51558.00;;;-142.34;27.37
12951;BME280;6540;50.858;7.232;2023-08-06T06:35:10;51551.97;;;-142.34;27.39
12951;BME280;6540;50.858;7.232;2023-08-06T06:37:36;51495.47;;;-142.34;27.37
12951;BME280;6540;50.858;7.232;2023-08-06T06:40:01;51513.63;;;-142.34;27.81
12951;BME280;6540;50.858;7.232;2023-08-06T06:42:27;51551.97;;;-142.34;27.85
12951;BME280;6540;50.858;7.232;2023-08-06T06:44:52;51584.22;;;-142.34;27.73
12951;BME280;6540;50.858;7.232;2023-08-06T06:47:17;51582.22;;;-142.34;28.29
12951;BME280;6540;50.858;7.232;2023-08-06T06:49:43;51580.19;;;-142.34;27.83
12951;BME280;6540;50.858;7.232;2023-08-06T06:52:08;51551.97;;;-142.34;28.53
12951;BME280;6540;50.858;7.232;2023-08-06T06:54:34;51572.13;;;-142.34;27.90
12951;BME280;6540;50.858;7.232;2023-08-06T06:56:59;51620.53;;;-142.34;28.79
12951;BME280;6540;50.858;7.232;2023-08-06T06:59:24;51564.06;;;-142.34;28.26
12951;BME280;6540;50.858;7.232;2023-08-06T07:01:50;51634.66;;;-142.34;30.33
12951;BME280;6540;50.858;7.232;2023-08-06T07:04:15;51628.63;;;-142.34;29.43
12951;BME280;6540;50.858;7.232;2023-08-06T07:06:40;51612.47;;;-142.34;29.68
12951;BME280;6540;50.858;7.232;2023-08-06T07:09:06;51596.34;;;-142.34;29.18
12951;BME280;6540;50.858;7.232;2023-08-06T07:11:41;51642.72;;;-142.34;30.19
12951;BME280;6540;50.858;7.232;2023-08-06T07:14:08;51632.66;;;-142.34;29.51
12951;BME280;6540;50.858;7.232;2023-08-06T07:16:34;51652.81;;;-142.34;29.58
12951;BME280;6540;50.858;7.232;2023-08-06T07:19:00;51588.28;;;-142.34;28.32
12951;BME280;6540;50.858;7.232;2023-08-06T07:21:25;51584.22;;;-142.34;28.46
12951;BME280;6540;50.858;7.232;2023-08-06T07:23:50;51600.38;;;-142.34;28.93
12951;BME280;6540;50.858;7.232;2023-08-06T07:26:16;51606.44;;;-142.34;28.71
12951;BME280;6540;50.858;7.232;2023-08-06T07:28:42;51612.47;;;-142.34;29.00
12951;BME280;6540;50.858;7.232;2023-08-06T07:31:07;51543.88;;;-142.34;27.82
12951;BME280;6540;50.858;7.232;2023-08-06T07:33:33;51551.97;;;-142.34;27.61
12951;BME280;6540;50.858;7.232;2023-08-06T07:35:58;51549.94;;;-142.34;28.07
12951;BME280;6540;50.858;7.232;2023-08-06T07:38:23;51578.19;;;-142.34;27.82
12951;BME280;6540;50.858;7.232;2023-08-06T07:40:49;51551.97;;;-142.34;27.89
12951;BME280;6540;50.858;7.232;2023-08-06T07:43:14;51507.59;;;-142.34;27.39
12951;BME280;6540;50.858;7.232;2023-08-06T07:45:39;51564.06;;;-142.34;27.63
12951;BME280;6540;50.858;7.232;2023-08-06T07:48:05;51556.00;;;-142.34;27.68
12951;BME280;6540;50.858;7.232;2023-08-06T07:50:30;51539.84;;;-142.34;27.78
12951;BME280;6540;50.858;7.232;2023-08-06T07:52:56;51608.44;;;-142.34;28.76
12951;BME280;6540;50.858;7.232;2023-08-06T07:55:21;51628.63;;;-142.34;30.05
12951;BME280;6540;50.858;7.232;2023-08-06T07:57:46;51588.28;;;-142.34;28.63
12951;BME280;6540;50.858;7.232;2023-08-06T08:00:13;51620.53;;;-142.34;29.18
12951;BME280;6540;50.858;7.232;2023-08-06T08:02:39;51614.50;;;-142.34;29.48
12951;BME280;6540;50.858;7.232;2023-08-06T08:05:10;51596.34;;;-142.34;28.05
12951;BME280;6540;50.858;7.232;2023-08-06T08:07:35;51598.34;;;-142.34;28.51
12951;BME280;6540;50.858;7.232;2023-08-06T08:10:03;51622.56;;;-142.34;29.49
12951;BME280;6540;50.858;7.232;2023-08-06T08:12:51;51616.50;;;-142.34;29.49
12951;BME280;6540;50.858;7.232;2023-08-06T08:15:22;51588.28;;;-142.34;28.04
12951;BME280;6540;50.858;7.232;2023-08-06T08:18:00;51584.22;;;-142.34;29.29
12951;BME280;6540;50.858;7.232;2023-08-06T08:20:45;51574.16;;;-142.34;28.21
12951;BME280;6540;50.858;7.232;2023-08-06T08:23:35;51564.06;;;-142.34;28.79
12951;BME280;6540;50.858;7.232;2023-08-06T08:26:04;51620.53;;;-142.34;29.37
12951;BME280;6540;50.858;7.232;2023-08-06T08:28:33;51598.34;;;-142.34;29.01
12951;BME280;6540;50.858;7.232;2023-08-06T08:31:18;51592.31;;;-142.34;28.39
12951;BME280;6540;50.858;7.232;2023-08-06T08:36:52;51568.09;;;-142.34;27.85
12951;BME280;6540;50.858;7.232;2023-08-06T08:39:34;51499.50;;;-142.34;28.30
12951;BME280;6540;50.858;7.232;2023-08-06T08:42:02;51578.19;;;-142.34;28.78
12951;BME280;6540;50.858;7.232;2023-08-06T08:44:30;51560.03;;;-142.34;28.36
12951;BME280;6540;50.858;7.232;2023-08-06T08:46:59;51592.31;;;-142.34;28.56
12951;BME280;6540;50.858;7.232;2023-08-06T08:49:36;51560.03;;;-142.34;29.26
12951;BME280;6540;50.858;7.232;2023-08-06T08:52:14;51588.28;;;-142.34;28.54
12951;BME280;6540;50.858;7.232;2023-08-06T08:54:40;51588.28;;;-142.34;29.04
12951;BME280;6540;50.858;7.232;2023-08-06T08:57:09;51541.88;;;-142.34;28.28
12951;BME280;6540;50.858;7.232;2023-08-06T08:59:35;51535.81;;;-142.34;28.34
12951;BME280;6540;50.858;7.232;2023-08-06T09:02:01;51556.00;;;-142.34;28.41
12951;BME280;6540;50.858;7.232;2023-08-06T09:04:29;51523.72;;;-142.34;27.64
12951;BME280;6540;50.858;7.232;2023-08-06T09:06:58;51547.94;;;-142.34;28.31
12951;BME280;6540;50.858;7.232;2023-08-06T09:09:34;51529.78;;;-142.34;27.56
12951;BME280;6540;50.858;7.232;2023-08-06T09:12:11;51531.78;;;-142.34;27.71
12951;BME280;6540;50.858;7.232;2023-08-06T09:14:37;51564.06;;;-142.34;28.70
12951;BME280;6540;50.858;7.232;2023-08-06T09:17:06;51519.69;;;-142.34;27.89
12951;BME280;6540;50.858;7.232;2023-08-06T09:19:33;51592.31;;;-142.34;29.56
12951;BME280;6540;50.858;7.232;2023-08-06T09:21:58;51529.78;;;-142.34;28.23
12951;BME280;6540;50.858;7.232;2023-08-06T09:24:24;51507.59;;;-142.34;27.68
12951;BME280;6540;50.858;7.232;2023-08-06T09:26:51;51499.50;;;-142.34;27.63
12951;BME280;6540;50.858;7.232;2023-08-06T09:29:16;51535.81;;;-142.34;28.15
12951;BME280;6540;50.858;7.232;2023-08-06T09:31:52;51517.66;;;-142.34;27.62
12951;BME280;6540;50.858;7.232;2023-08-06T09:34:21;51511.63;;;-142.34;27.60
12951;BME280;6540;50.858;7.232;2023-08-06T09:36:52;51495.47;;;-142.34;27.66
12951;BME280;6540;50.858;7.232;2023-08-06T09:39:20;51553.97;;;-142.34;28.68
12951;BME280;6540;50.858;7.232;2023-08-06T09:41:46;51527.75;;;-142.34;28.00
12951;BME280;6540;50.858;7.232;2023-08-06T09:44:19;51513.63;;;-142.34;28.30
12951;BME280;6540;50.858;7.232;2023-08-06T09:46:55;51499.50;;;-142.34;27.76
12951;BME280;6540;50.858;7.232;2023-08-06T09:52:02;51483.38;;;-142.34;27.63
12951;BME280;6540;50.858;7.232;2023-08-06T09:54:28;51471.28;;;-142.34;27.83
12951;BME280;6540;50.858;7.232;2023-08-06T09:56:55;51439.00;;;-142.34;27.36
12951;BME280;6540;50.858;7.232;2023-08-06T09:59:25;51443.03;;;-142.34;27.54
12951;BME280;6540;50.858;7.232;2023-08-06T10:01:51;51463.22;;;-142.34;28.21
12951;BME280;6540;50.858;7.232;2023-08-06T10:04:16;51461.19;;;-142.34;27.51
12951;BME280;6540;50.858;7.232;2023-08-06T10:06:46;51475.31;;;-142.34;27.34
12951;BME280;6540;50.858;7.232;2023-08-06T10:09:12;51535.81;;;-142.34;29.21
12951;BME280;6540;50.858;7.232;2023-08-06T10:11:39;51525.75;;;-142.34;28.97
12951;BME280;6540;50.858;7.232;2023-08-06T10:14:15;51527.75;;;-142.34;28.46
12951;BME280;6540;50.858;7.232;2023-08-06T10:16:41;51461.19;;;-142.34;27.31
12951;BME280;6540;50.858;7.232;2023-08-06T10:19:09;51582.22;;;-142.34;31.16
12951;BME280;6540;50.858;7.232;2023-08-06T10:21:38;51642.72;;;-142.34;31.19
12951;BME280;6540;50.858;7.232;2023-08-06T10:24:07;51553.97;;;-142.34;29.39
12951;BME280;6540;50.858;7.232;2023-08-06T10:26:34;51644.75;;;-142.34;30.70
12951;BME280;6540;50.858;7.232;2023-08-06T10:29:00;51588.28;;;-142.34;29.28
12951;BME280;6540;50.858;7.232;2023-08-06T10:31:53;51588.28;;;-142.34;28.92
12951;BME280;6540;50.858;7.232;2023-08-06T10:34:20;51640.72;;;-142.34;30.84
12951;BME280;6540;50.858;7.232;2023-08-06T10:36:46;51598.34;;;-142.34;29.92
12951;BME280;6540;50.858;7.232;2023-08-06T10:39:13;51588.28;;;-142.34;28.84
12951;BME280;6540;50.858;7.232;2023-08-06T10:41:42;51622.56;;;-142.34;29.94
12951;BME280;6540;50.858;7.232;2023-08-06T10:44:09;51660.88;;;-142.34;32.11
12951;BME280;6540;50.858;7.232;2023-08-06T10:46:35;51664.91;;;-142.34;31.05
12951;BME280;6540;50.858;7.232;2023-08-06T10:49:01;51705.25;;;-142.34;33.73
12951;BME280;6540;50.858;7.232;2023-08-06T10:51:27;51677.03;;;-142.34;30.20
12951;BME280;6540;50.858;7.232;2023-08-06T10:53:52;51668.97;;;-142.34;31.40
12951;BME280;6540;50.858;7.232;2023-08-06T10:56:20;51697.19;;;-142.34;31.06
12951;BME280;6540;50.858;7.232;2023-08-06T10:58:48;51677.03;;;-142.34;31.54
12951;BME280;6540;50.858;7.232;2023-08-06T11:01:14;51673.00;;;-142.34;31.94
12951;BME280;6540;50.858;7.232;2023-08-06T11:03:44;51677.03;;;-142.34;31.10
12951;BME280;6540;50.858;7.232;2023-08-06T11:06:10;51747.63;;;-142.34;33.32
12951;BME280;6540;50.858;7.232;2023-08-06T11:08:40;51723.41;;;-142.34;32.69
12951;BME280;6540;50.858;7.232;2023-08-06T11:11:13;51715.34;;;-142.34;31.52
12951;BME280;6540;50.858;7.232;2023-08-06T11:13:43;51693.16;;;-142.34;31.40
12951;BME280;6540;50.858;7.232;2023-08-06T11:16:11;51677.03;;;-142.34;31.59
12951;BME280;6540;50.858;7.232;2023-08-06T11:18:37;51701.22;;;-142.34;31.45
12951;BME280;6540;50.858;7.232;2023-08-06T11:21:02;51705.25;;;-142.34;32.27
12951;BME280;6540;50.858;7.232;2023-08-06T11:23:28;51711.31;;;-142.34;32.52
12951;BME280;6540;50.858;7.232;2023-08-06T11:25:57;51721.41;;;-142.34;31.26
12951;BME280;6540;50.858;7.232;2023-08-06T11:28:24;51725.44;;;-142.34;31.35
12951;BME280;6540;50.858;7.232;2023-08-06T11:30:50;51713.34;;;-142.34;30.79
12951;BME280;6540;50.858;7.232;2023-08-06T11:33:23;51693.16;;;-142.34;30.69
12951;BME280;6540;50.858;7.232;2023-08-06T11:35:51;51689.13;;;-142.34;30.72
12951;BME280;6540;50.858;7.232;2023-08-06T11:38:17;51673.00;;;-142.34;30.29
12951;BME280;6540;50.858;7.232;2023-08-06T11:40:44;51640.72;;;-142.34;30.49
12951;BME280;6540;50.858;7.232;2023-08-06T11:43:10;51721.41;;;-142.34;32.42
12951;BME280;6540;50.858;7.232;2023-08-06T11:45:38;51695.19;;;-142.34;31.23
12951;BME280;6540;50.858;7.232;2023-08-06T11:48:04;51705.25;;;-142.34;32.40
12951;BME280;6540;50.858;7.232;2023-08-06T11:50:30;51675.00;;;-142.34;30.54
12951;BME280;6540;50.858;7.232;2023-08-06T11:52:58;51664.91;;;-142.34;30.07
12951;BME280;6540;50.858;7.232;2023-08-06T11:55:24;51713.34;;;-142.34;30.94
12951;BME280;6540;50.858;7.232;2023-08-06T11:57:50;51681.06;;;-142.34;30.93
12951;BME280;6540;50.858;7.232;2023-08-06T12:00:16;51681.06;;;-142.34;31.72
12951;BME280;6540;50.858;7.232;2023-08-06T12:02:44;51670.97;;;-142.34;31.69
12951;BME280;6540;50.858;7.232;2023-08-06T12:05:12;51689.13;;;-142.34;31.48
12951;BME280;6540;50.858;7.232;2023-08-06T12:07:40;51681.06;;;-142.34;31.24
12951;BME280;6540;50.858;7.232;2023-08-06T12:10:09;51640.72;;;-142.34;29.29
12951;BME280;6540;50.858;7.232;2023-08-06T12:12:35;51644.75;;;-142.34;29.67
12951;BME280;6540;50.858;7.232;2023-08-06T12:15:02;51640.72;;;-142.34;29.27
12951;BME280;6540;50.858;7.232;2023-08-06T12:17:28;51636.69;;;-142.34;30.04
12951;BME280;6540;50.858;7.232;2023-08-06T12:19:53;51685.09;;;-142.34;31.11
12951;BME280;6540;50.858;7.232;2023-08-06T12:22:19;51636.69;;;-142.34;30.24
12951;BME280;6540;50.858;7.232;2023-08-06T12:24:46;51681.06;;;-142.34;31.27
12951;BME280;6540;50.858;7.232;2023-08-06T12:27:12;51624.56;;;-142.34;30.28
12951;BME280;6540;50.858;7.232;2023-08-06T12:29:47;51664.91;;;-142.34;31.21
12951;BME280;6540;50.858;7.232;2023-08-06T12:32:13;51664.91;;;-142.34;29.81
12951;BME280;6540;50.858;7.232;2023-08-06T12:34:39;51699.22;;;-142.34;30.66
12951;BME280;6540;50.858;7.232;2023-08-06T12:37:04;51695.19;;;-142.34;30.37
12951;BME280;6540;50.858;7.232;2023-08-06T12:39:30;51632.66;;;-142.34;29.92
12951;BME280;6540;50.858;7.232;2023-08-06T12:41:56;51650.81;;;-142.34;31.07
12951;BME280;6540;50.858;7.232;2023-08-06T12:44:23;51668.97;;;-142.34;31.59
12951;BME280;6540;50.858;7.232;2023-08-06T12:46:49;51660.88;;;-142.34;29.97
12951;BME280;6540;50.858;7.232;2023-08-06T12:49:18;51636.69;;;-142.34;29.09
12951;BME280;6540;50.858;7.232;2023-08-06T12:51:46;51596.34;;;-142.34;29.82
12951;BME280;6540;50.858;7.232;2023-08-06T12:54:11;51681.06;;;-142.34;30.11
12951;BME280;6540;50.858;7.232;2023-08-06T12:56:36;51681.06;;;-142.34;30.65
12951;BME280;6540;50.858;7.232;2023-08-06T12:59:02;51660.88;;;-142.34;29.97